createdAt,value
2019-03-21T00:01:56.310Z,17.53
2019-03-21T00:04:27.188Z,10.80
2019-03-21T00:06:57.973Z,15.07
2019-03-21T00:09:28.809Z,12.37
2019-03-21T00:12:04.069Z,10.37
2019-03-21T00:14:53.935Z,11.27
2019-03-21T00:17:27.903Z,13.40
2019-03-21T00:19:58.867Z,14.70
2019-03-21T00:22:29.610Z,11.77
2019-03-21T00:25:00.386Z,15.40
2019-03-21T00:27:31.388Z,13.27
2019-03-21T00:30:02.241Z,12.97
2019-03-21T00:32:33.367Z,15.00
2019-03-21T00:35:04.180Z,17.90
2019-03-21T00:37:34.916Z,14.43
2019-03-21T00:40:06.685Z,14.17
2019-03-21T00:42:38.121Z,15.73
2019-03-21T00:45:10.157Z,14.40
2019-03-21T00:47:41.920Z,27.93
2019-03-21T00:50:14.661Z,15.90
2019-03-21T00:52:48.072Z,15.53
2019-03-21T00:55:18.880Z,18.13
2019-03-21T00:57:49.860Z,12.87
2019-03-21T01:00:27.195Z,15.07
2019-03-21T01:02:58.067Z,13.90
2019-03-21T01:05:30.217Z,11.80
2019-03-21T01:08:01.194Z,12.07
2019-03-21T01:10:32.168Z,15.20
2019-03-21T01:13:03.181Z,13.07
2019-03-21T01:15:36.005Z,12.10
2019-03-21T01:18:06.851Z,9.47
2019-03-21T01:20:37.644Z,10.90
2019-03-21T01:23:08.418Z,12.97
2019-03-21T01:25:42.512Z,11.53
2019-03-21T01:28:14.541Z,9.27
2019-03-21T01:30:45.426Z,19.27
2019-03-21T01:33:16.227Z,10.80
2019-03-21T01:35:47.026Z,10.00
2019-03-21T01:38:17.834Z,10.43
2019-03-21T01:40:49.451Z,11.47
2019-03-21T01:43:20.722Z,12.50
2019-03-21T01:45:51.587Z,14.20
2019-03-21T01:48:22.453Z,12.80
2019-03-21T01:50:53.282Z,10.20
2019-03-21T01:53:24.050Z,14.33
2019-03-21T01:55:54.829Z,16.20
2019-03-21T01:58:25.929Z,12.83
2019-03-21T02:00:56.779Z,13.70
2019-03-21T02:03:27.598Z,8.87
2019-03-21T02:05:58.381Z,14.90
2019-03-21T02:08:29.157Z,13.47
2019-03-21T02:10:59.969Z,12.00
2019-03-21T02:13:31.880Z,13.73
2019-03-21T02:16:03.108Z,11.10
2019-03-21T02:18:33.918Z,10.70
2019-03-21T02:21:04.773Z,12.27
2019-03-21T02:23:35.698Z,12.27
2019-03-21T02:26:06.503Z,13.37
2019-03-21T02:28:37.538Z,15.03
2019-03-21T02:31:08.478Z,11.10
2019-03-21T02:33:39.426Z,13.47
2019-03-21T02:36:10.228Z,9.93
2019-03-21T02:38:41.024Z,11.33
2019-03-21T02:41:12.082Z,11.73
2019-03-21T02:43:43.582Z,15.50
2019-03-21T02:46:14.966Z,12.37
2019-03-21T02:48:45.769Z,11.23
2019-03-21T02:51:16.617Z,10.63
2019-03-21T02:53:47.474Z,14.57
2019-03-21T02:56:19.750Z,12.27
2019-03-21T02:58:50.674Z,9.33
2019-03-21T03:01:21.915Z,11.97
2019-03-21T03:03:52.844Z,13.13
2019-03-21T03:06:23.659Z,17.10
2019-03-21T03:08:54.572Z,14.30
2019-03-21T03:11:25.468Z,13.40
2019-03-21T03:13:57.289Z,11.83
2019-03-21T03:16:28.120Z,12.53
2019-03-21T03:18:59.972Z,11.43
2019-03-21T03:21:30.840Z,13.50
2019-03-21T03:24:01.675Z,12.83
2019-03-21T03:26:32.438Z,15.07
2019-03-21T03:29:03.457Z,11.63
2019-03-21T03:31:36.986Z,14.70
2019-03-21T03:34:07.893Z,10.43
2019-03-21T03:36:38.690Z,11.37
2019-03-21T03:39:09.852Z,9.70
2019-03-21T03:41:40.710Z,9.43
2019-03-21T03:44:11.830Z,10.57
2019-03-21T03:46:42.567Z,15.30
2019-03-21T03:49:13.564Z,13.87
2019-03-21T03:51:44.620Z,12.90
2019-03-21T03:54:15.623Z,11.40
2019-03-21T03:56:48.042Z,13.60
2019-03-21T03:59:19.046Z,12.53
2019-03-21T04:01:49.784Z,12.40
2019-03-21T04:04:20.685Z,12.73
2019-03-21T04:06:51.509Z,11.57
2019-03-21T04:09:22.385Z,14.50
2019-03-21T04:11:53.526Z,11.27
2019-03-21T04:14:24.370Z,8.67
2019-03-21T04:16:55.110Z,10.60
2019-03-21T04:19:25.915Z,13.00
2019-03-21T04:21:58.710Z,11.33
2019-03-21T04:24:30.677Z,11.80
2019-03-21T04:27:01.443Z,11.10
2019-03-21T04:29:32.628Z,12.13
2019-03-21T04:32:07.531Z,11.00
2019-03-21T04:34:39.151Z,14.90
2019-03-21T04:37:09.955Z,12.63
2019-03-21T04:39:40.952Z,11.40
2019-03-21T04:42:11.838Z,13.70
2019-03-21T04:44:44.446Z,38.80
2019-03-21T04:47:15.431Z,40.40
2019-03-21T04:49:46.188Z,32.63
2019-03-21T04:52:17.049Z,15.07
2019-03-21T04:54:47.796Z,16.90
2019-03-21T04:57:18.641Z,12.80
2019-03-21T04:59:49.560Z,15.23
2019-03-21T05:02:20.442Z,19.40
2019-03-21T05:04:51.414Z,14.90
2019-03-21T05:07:22.238Z,13.40
2019-03-21T05:09:53.088Z,13.20
2019-03-21T05:12:23.882Z,13.97
2019-03-21T05:14:54.702Z,10.30
2019-03-21T05:17:25.437Z,10.60
2019-03-21T05:19:56.244Z,12.67
2019-03-21T05:22:29.751Z,17.77
2019-03-21T05:25:00.496Z,16.33
2019-03-21T05:27:31.231Z,17.23
2019-03-21T05:30:02.236Z,15.33
2019-03-21T05:32:33.013Z,17.63
2019-03-21T05:35:03.917Z,13.93
2019-03-21T05:37:35.119Z,18.17
2019-03-21T05:40:07.512Z,12.00
2019-03-21T05:42:38.395Z,21.47
2019-03-21T05:45:11.031Z,28.20
2019-03-21T05:47:41.809Z,18.20
2019-03-21T05:50:15.061Z,24.70
2019-03-21T05:52:46.115Z,17.43
2019-03-21T05:55:16.878Z,21.50
2019-03-21T05:57:47.674Z,18.53
2019-03-21T06:00:25.127Z,16.87
2019-03-21T06:02:56.094Z,17.53
2019-03-21T06:05:26.961Z,17.83
2019-03-21T06:08:21.036Z,18.00
2019-03-21T06:10:52.182Z,20.63
2019-03-21T06:13:25.707Z,27.27
2019-03-21T06:16:06.382Z,24.07
2019-03-21T06:19:13.610Z,25.00
2019-03-21T06:21:51.099Z,25.00
2019-03-21T06:24:48.966Z,30.40
2019-03-21T06:27:39.923Z,17.97
2019-03-21T06:30:11.827Z,27.17
2019-03-21T06:32:42.693Z,26.60
2019-03-21T06:35:22.404Z,31.57
2019-03-21T06:37:54.980Z,28.97
2019-03-21T06:40:30.443Z,25.77
2019-03-21T06:43:01.699Z,18.97
2019-03-21T06:45:34.115Z,13.87
2019-03-21T06:48:05.024Z,14.43
2019-03-21T06:50:35.881Z,18.43
2019-03-21T06:53:07.795Z,15.67
2019-03-21T06:55:38.623Z,18.43
2019-03-21T06:58:09.430Z,16.87
2019-03-21T07:00:40.203Z,19.33
2019-03-21T07:03:11.058Z,17.63
2019-03-21T07:05:41.895Z,16.47
2019-03-21T07:08:12.707Z,17.47
2019-03-21T07:10:43.534Z,14.33
2019-03-21T07:13:14.565Z,22.23
2019-03-21T07:15:45.726Z,19.50
2019-03-21T07:18:16.600Z,18.63
2019-03-21T07:20:47.462Z,13.73
2019-03-21T07:23:18.326Z,19.13
2019-03-21T07:25:51.350Z,17.10
2019-03-21T07:28:22.562Z,19.80
2019-03-21T07:30:53.365Z,16.87
2019-03-21T07:33:24.341Z,19.10
2019-03-21T07:35:55.178Z,14.63
2019-03-21T07:38:26.334Z,13.53
2019-03-21T07:40:57.429Z,16.77
2019-03-21T07:43:28.222Z,14.33
2019-03-21T07:45:59.696Z,16.20
2019-03-21T07:48:30.944Z,17.77
2019-03-21T07:51:01.746Z,16.80
2019-03-21T07:53:33.086Z,17.73
2019-03-21T07:56:05.326Z,15.77
2019-03-21T07:58:37.157Z,14.20
2019-03-21T08:01:07.966Z,16.27
2019-03-21T08:03:38.831Z,17.20
2019-03-21T08:06:09.719Z,16.63
2019-03-21T08:08:40.602Z,13.80
2019-03-21T08:11:11.362Z,15.83
2019-03-21T08:13:42.181Z,18.63
2019-03-21T08:16:13.442Z,18.57
2019-03-21T08:18:44.397Z,20.83
2019-03-21T08:21:15.244Z,18.07
2019-03-21T08:23:46.072Z,16.67
2019-03-21T08:26:17.023Z,20.60
2019-03-21T08:28:47.946Z,17.20
2019-03-21T08:31:19.903Z,15.40
2019-03-21T08:33:50.946Z,17.40
2019-03-21T08:36:21.769Z,23.27
2019-03-21T08:38:54.237Z,17.27
2019-03-21T08:41:25.152Z,20.57
2019-03-21T08:43:56.307Z,17.10
2019-03-21T08:46:27.599Z,20.67
2019-03-21T08:48:58.704Z,18.93
2019-03-21T08:51:30.834Z,17.40
2019-03-21T08:54:08.676Z,23.17
2019-03-21T08:56:39.541Z,19.83
2019-03-21T08:59:12.525Z,20.13
2019-03-21T09:01:43.358Z,21.40
2019-03-21T09:04:15.218Z,19.77
2019-03-21T09:06:45.983Z,19.13
2019-03-21T09:09:16.947Z,19.60
2019-03-21T09:11:47.753Z,23.83
2019-03-21T09:14:18.999Z,23.60
2019-03-21T09:16:49.874Z,17.23
2019-03-21T09:19:22.213Z,19.03
2019-03-21T09:21:53.139Z,16.10
2019-03-21T09:24:25.191Z,18.83
2019-03-21T09:26:56.021Z,15.73
2019-03-21T09:29:26.871Z,22.60
2019-03-21T09:31:58.357Z,19.20
2019-03-21T09:34:29.647Z,16.23
2019-03-21T09:37:03.954Z,19.00
2019-03-21T09:39:36.359Z,19.47
2019-03-21T09:42:07.182Z,19.43
2019-03-21T09:44:38.134Z,13.97
2019-03-21T09:47:09.515Z,17.97
2019-03-21T09:49:40.544Z,19.63
2019-03-21T09:52:13.340Z,17.67
2019-03-21T09:54:44.289Z,17.13
2019-03-21T09:57:15.051Z,18.53
2019-03-21T09:59:47.711Z,17.60
2019-03-21T10:02:18.887Z,18.07
2019-03-21T10:04:49.724Z,18.17
2019-03-21T10:07:20.511Z,16.27
2019-03-21T10:09:51.520Z,14.80
2019-03-21T10:12:22.336Z,17.03
2019-03-21T10:14:54.984Z,16.80
2019-03-21T10:17:26.115Z,15.03
2019-03-21T10:19:57.889Z,21.10
2019-03-21T10:22:28.667Z,10.43
2019-03-21T10:25:00.360Z,12.53
2019-03-21T10:27:34.682Z,8.67
2019-03-21T10:30:06.224Z,10.27
2019-03-21T10:32:37.001Z,14.93
2019-03-21T10:35:09.679Z,12.23
2019-03-21T10:37:40.410Z,9.23
2019-03-21T10:40:11.295Z,12.27
2019-03-21T10:42:42.089Z,12.47
2019-03-21T10:45:14.195Z,15.50
2019-03-21T10:47:45.542Z,22.10
2019-03-21T10:50:20.140Z,16.90
2019-03-21T10:52:50.916Z,19.00
2019-03-21T10:55:21.772Z,15.70
2019-03-21T10:57:52.546Z,16.63
2019-03-21T11:00:23.477Z,17.47
2019-03-21T11:02:55.222Z,16.00
2019-03-21T11:05:26.649Z,15.07
2019-03-21T11:07:57.365Z,12.53
2019-03-21T11:10:28.299Z,13.40
2019-03-21T11:12:59.477Z,11.97
2019-03-21T11:15:30.903Z,12.37
2019-03-21T11:18:01.695Z,10.57
2019-03-21T11:20:34.199Z,8.43
2019-03-21T11:23:08.124Z,9.97
2019-03-21T11:25:38.903Z,11.77
2019-03-21T11:28:09.902Z,12.27
2019-03-21T11:30:42.551Z,11.70
2019-03-21T11:33:13.390Z,12.67
2019-03-21T11:35:44.360Z,13.10
2019-03-21T11:38:15.187Z,9.17
2019-03-21T11:40:48.434Z,10.40
2019-03-21T11:43:20.202Z,11.93
2019-03-21T11:45:51.112Z,12.60
2019-03-21T11:48:23.506Z,11.60
2019-03-21T11:50:54.698Z,11.40
2019-03-21T11:53:25.618Z,12.30
2019-03-21T11:55:56.410Z,13.13
2019-03-21T11:58:27.156Z,11.30
2019-03-21T12:00:58.088Z,11.23
2019-03-21T12:03:31.186Z,16.43
2019-03-21T12:06:02.072Z,10.53
2019-03-21T12:08:33.932Z,14.37
2019-03-21T12:11:08.715Z,13.53
2019-03-21T12:13:39.452Z,12.77
2019-03-21T12:16:12.510Z,18.10
2019-03-21T12:18:43.371Z,13.00
2019-03-21T12:21:14.973Z,12.10
2019-03-21T12:23:45.833Z,12.57
2019-03-21T12:26:18.978Z,13.75
2019-03-21T12:28:49.813Z,13.90
2019-03-21T12:31:20.749Z,10.47
2019-03-21T12:33:51.505Z,13.93
2019-03-21T12:36:23.041Z,12.83
2019-03-21T12:38:56.626Z,14.23
2019-03-21T12:41:27.588Z,15.07
2019-03-21T12:44:00.758Z,12.93
2019-03-21T12:46:32.002Z,17.00
2019-03-21T12:49:05.427Z,13.37
2019-03-21T12:51:37.478Z,12.63
2019-03-21T12:54:08.379Z,14.47
2019-03-21T12:56:39.294Z,18.50
2019-03-21T12:59:10.335Z,14.87
2019-03-21T13:01:41.184Z,13.07
2019-03-21T13:04:12.881Z,15.10
2019-03-21T13:06:43.706Z,18.80
2019-03-21T13:09:14.593Z,16.53
2019-03-21T13:11:45.574Z,12.80
2019-03-21T13:14:20.062Z,16.83
2019-03-21T13:16:50.923Z,17.00
2019-03-21T13:19:22.808Z,17.83
2019-03-21T13:21:53.675Z,16.10
2019-03-21T13:24:24.613Z,15.63
2019-03-21T13:26:55.860Z,17.93
2019-03-21T13:29:28.660Z,14.93
2019-03-21T13:32:00.683Z,18.20
2019-03-21T13:34:32.216Z,17.87
2019-03-21T13:37:03.364Z,17.47
2019-03-21T13:39:34.585Z,20.87
2019-03-21T13:42:06.860Z,16.63
2019-03-21T13:44:39.683Z,17.63
2019-03-21T13:47:10.906Z,19.87
2019-03-21T13:49:43.446Z,24.50
2019-03-21T13:52:14.775Z,19.20
2019-03-21T13:54:45.882Z,20.70
2019-03-21T13:57:16.772Z,24.00
2019-03-21T13:59:47.619Z,17.70
2019-03-21T14:02:18.524Z,17.20
2019-03-21T14:04:55.600Z,19.70
2019-03-21T14:07:27.563Z,16.73
2019-03-21T14:09:59.835Z,18.27
2019-03-21T14:12:30.667Z,21.07
2019-03-21T14:15:04.108Z,17.20
2019-03-21T14:17:35.119Z,20.60
2019-03-21T14:20:06.449Z,22.33
2019-03-21T14:22:40.662Z,17.23
2019-03-21T14:25:13.988Z,20.47
2019-03-21T14:27:44.902Z,16.60
2019-03-21T14:30:20.161Z,19.07
2019-03-21T14:32:53.144Z,18.97
2019-03-21T14:35:26.519Z,20.77
2019-03-21T14:37:57.502Z,20.43
2019-03-21T14:40:28.364Z,20.90
2019-03-21T14:42:59.358Z,20.73
2019-03-21T14:45:30.210Z,20.90
2019-03-21T14:48:04.541Z,26.40
2019-03-21T14:50:35.883Z,20.57
2019-03-21T14:53:06.740Z,22.40
2019-03-21T14:55:47.003Z,20.27
2019-03-21T14:58:14.639Z,20.50
2019-03-21T15:00:45.568Z,20.27
2019-03-21T15:03:18.036Z,18.17
2019-03-21T15:05:48.858Z,19.90
2019-03-21T15:08:20.101Z,19.47
2019-03-21T15:10:51.127Z,19.87
2019-03-21T15:13:22.059Z,22.30
2019-03-21T15:15:54.477Z,21.53
2019-03-21T15:18:26.217Z,21.77
2019-03-21T15:20:57.082Z,20.90
2019-03-21T15:23:39.920Z,19.00
2019-03-21T15:26:00.744Z,17.27
2019-03-21T15:28:31.666Z,19.37
2019-03-21T15:31:02.751Z,21.33
2019-03-21T15:33:34.652Z,19.87
2019-03-21T15:36:05.408Z,16.37
2019-03-21T15:38:37.414Z,20.70
2019-03-21T15:41:10.412Z,26.93
2019-03-21T15:43:41.411Z,20.10
2019-03-21T15:46:12.392Z,17.23
2019-03-21T15:48:44.328Z,22.90
2019-03-21T15:51:15.916Z,20.83
2019-03-21T15:53:53.482Z,18.53
2019-03-21T15:56:19.598Z,20.47
2019-03-21T15:58:50.419Z,19.70
2019-03-21T16:01:22.112Z,18.37
2019-03-21T16:03:52.966Z,21.10
2019-03-21T16:06:23.910Z,19.27
2019-03-21T16:08:54.950Z,19.67
2019-03-21T16:11:25.788Z,22.57
2019-03-21T16:13:56.783Z,19.93
2019-03-21T16:16:28.439Z,21.53
2019-03-21T16:18:59.297Z,24.57
2019-03-21T16:21:30.255Z,20.20
2019-03-21T16:24:05.480Z,19.10
2019-03-21T16:26:36.528Z,21.93
2019-03-21T16:29:06.536Z,21.73
2019-03-21T16:31:40.434Z,18.93
2019-03-21T16:34:11.309Z,25.20
2019-03-21T16:36:42.235Z,22.53
2019-03-21T16:39:13.258Z,20.83
2019-03-21T16:41:44.074Z,20.60
2019-03-21T16:44:14.930Z,20.27
2019-03-21T16:46:45.747Z,22.07
2019-03-21T16:49:16.599Z,23.87
2019-03-21T16:51:47.718Z,22.90
2019-03-21T16:54:18.702Z,22.80
2019-03-21T16:56:49.658Z,22.50
2019-03-21T16:59:20.553Z,22.37
2019-03-21T17:01:51.327Z,23.77
2019-03-21T17:04:22.267Z,21.53
2019-03-21T17:06:53.414Z,23.90
2019-03-21T17:09:24.406Z,23.10
2019-03-21T17:11:55.234Z,24.63
2019-03-21T17:14:26.497Z,22.00
2019-03-21T17:16:57.337Z,21.07
2019-03-21T17:19:28.683Z,26.87
2019-03-21T17:21:59.523Z,23.57
2019-03-21T17:24:30.391Z,25.27
2019-03-21T17:27:02.410Z,26.63
2019-03-21T17:29:33.429Z,25.10
2019-03-21T17:32:04.250Z,27.87
2019-03-21T17:34:35.054Z,25.47
2019-03-21T17:37:05.971Z,26.97
2019-03-21T17:39:37.095Z,24.97
2019-03-21T17:42:07.838Z,23.37
2019-03-21T17:44:38.692Z,26.80
2019-03-21T17:47:09.457Z,24.97
2019-03-21T17:49:40.409Z,27.30
2019-03-21T17:52:11.589Z,26.47
2019-03-21T17:54:42.366Z,28.17
2019-03-21T17:57:13.202Z,24.03
2019-03-21T17:59:44.269Z,27.13
2019-03-21T18:02:15.043Z,23.90
2019-03-21T18:04:45.926Z,26.90
2019-03-21T18:07:16.787Z,27.20
2019-03-21T18:09:48.577Z,25.67
2019-03-21T18:12:20.498Z,29.60
2019-03-21T18:14:51.298Z,26.13
2019-03-21T18:17:22.034Z,27.80
2019-03-21T18:19:52.860Z,26.30
2019-03-21T18:22:24.696Z,23.60
2019-03-21T18:24:55.626Z,26.60
2019-03-21T18:27:26.401Z,25.47
2019-03-21T18:29:57.252Z,22.23
2019-03-21T18:32:28.257Z,28.30
2019-03-21T18:34:59.012Z,26.07
2019-03-21T18:37:29.766Z,29.33
2019-03-21T18:40:00.839Z,23.53
2019-03-21T18:42:31.681Z,26.53
2019-03-21T18:45:02.549Z,24.87
2019-03-21T18:47:33.283Z,31.90
2019-03-21T18:50:04.338Z,27.67
2019-03-21T18:52:35.974Z,26.27
2019-03-21T18:55:08.353Z,20.77
2019-03-21T18:57:39.210Z,19.87
2019-03-21T19:00:10.763Z,26.93
2019-03-21T19:02:41.495Z,40.27
2019-03-21T19:05:12.354Z,46.17
2019-03-21T19:07:43.209Z,43.17
2019-03-21T19:10:14.377Z,40.70
2019-03-21T19:12:45.309Z,48.27
2019-03-21T19:15:16.424Z,52.30
2019-03-21T19:17:47.234Z,52.50
2019-03-21T19:20:18.402Z,46.70
2019-03-21T19:22:49.270Z,44.97
2019-03-21T19:25:22.526Z,39.23
2019-03-21T19:27:53.301Z,37.73
2019-03-21T19:30:24.225Z,36.20
2019-03-21T19:32:55.063Z,31.90
2019-03-21T19:35:25.980Z,30.37
2019-03-21T19:37:56.727Z,30.10
2019-03-21T19:40:27.565Z,33.07
2019-03-21T19:42:58.346Z,30.43
2019-03-21T19:45:29.123Z,32.97
2019-03-21T19:47:59.859Z,30.93
2019-03-21T19:50:30.686Z,31.20
2019-03-21T19:53:01.889Z,33.03
2019-03-21T19:55:32.691Z,30.43
2019-03-21T19:58:03.523Z,35.13
2019-03-21T20:00:34.382Z,33.97
2019-03-21T20:03:05.277Z,34.83
2019-03-21T20:05:36.059Z,35.83
2019-03-21T20:08:06.804Z,38.47
2019-03-21T20:10:37.809Z,39.30
2019-03-21T20:13:08.595Z,35.53
2019-03-21T20:15:39.592Z,34.70
2019-03-21T20:18:12.390Z,34.23
2019-03-21T20:20:43.407Z,29.53
2019-03-21T20:23:14.216Z,36.77
2019-03-21T20:25:45.065Z,38.00
2019-03-21T20:28:16.145Z,35.43
2019-03-21T20:30:47.006Z,36.40
2019-03-21T20:33:17.783Z,38.13
2019-03-21T20:35:48.630Z,36.20
2019-03-21T20:38:19.379Z,34.90
2019-03-21T20:40:50.335Z,32.77
2019-03-21T20:43:21.192Z,34.83
2019-03-21T20:45:54.998Z,35.47
2019-03-21T20:48:30.676Z,32.30
2019-03-21T20:51:01.499Z,35.10
2019-03-21T20:53:32.409Z,39.07
2019-03-21T20:56:03.247Z,30.93
2019-03-21T20:58:34.495Z,34.07
2019-03-21T21:01:18.925Z,34.07
2019-03-21T21:03:54.183Z,33.03
2019-03-21T21:06:24.995Z,32.23
2019-03-21T21:08:55.763Z,31.67
2019-03-21T21:11:26.804Z,28.60
2019-03-21T21:13:57.634Z,32.03
2019-03-21T21:16:28.667Z,27.53
2019-03-21T21:18:59.409Z,28.60
2019-03-21T21:21:30.386Z,28.53
2019-03-21T21:24:01.142Z,32.80
2019-03-21T21:26:32.068Z,36.73
2019-03-21T21:29:03.244Z,27.30
2019-03-21T21:31:34.230Z,31.50
2019-03-21T21:34:12.184Z,49.00
2019-03-21T21:36:46.937Z,34.87
2019-03-21T21:42:27.546Z,31.23
2019-03-21T21:44:59.733Z,31.63
2019-03-21T21:47:30.557Z,28.17
2019-03-21T21:50:02.293Z,27.90
2019-03-21T21:52:41.914Z,28.20
2019-03-21T21:55:07.278Z,27.37
2019-03-21T21:57:39.240Z,33.07
2019-03-21T22:00:15.016Z,25.47
2019-03-21T22:02:46.132Z,29.47
2019-03-21T22:05:17.105Z,26.60
2019-03-21T22:07:47.973Z,28.23
2019-03-21T22:10:18.848Z,22.20
2019-03-21T22:12:52.250Z,24.50
2019-03-21T22:15:23.175Z,25.33
2019-03-21T22:17:53.986Z,26.77
2019-03-21T22:20:24.759Z,27.00
2019-03-21T22:22:56.739Z,24.50
2019-03-21T22:25:27.535Z,26.10
2019-03-21T22:27:58.575Z,23.33
2019-03-21T22:30:29.355Z,27.20
2019-03-21T22:33:00.237Z,27.13
2019-03-21T22:35:31.048Z,30.07
2019-03-21T22:38:01.943Z,39.50
2019-03-21T22:40:32.716Z,36.43
2019-03-21T22:43:03.610Z,30.30
2019-03-21T22:45:34.381Z,27.17
2019-03-21T22:48:05.279Z,26.50
2019-03-21T22:50:36.100Z,25.13
2019-03-21T22:53:06.979Z,24.47
2019-03-21T22:55:37.885Z,25.93
2019-03-21T22:58:08.813Z,26.13
2019-03-21T23:00:44.334Z,26.07
2019-03-21T23:03:15.224Z,25.77
2019-03-21T23:05:46.076Z,24.53
2019-03-21T23:08:16.863Z,28.37
2019-03-21T23:10:47.676Z,32.33
2019-03-21T23:13:18.578Z,32.83
2019-03-21T23:15:49.363Z,28.90
2019-03-21T23:18:20.189Z,26.97
2019-03-21T23:20:50.945Z,25.73
2019-03-21T23:23:21.790Z,31.07
2019-03-21T23:25:52.665Z,27.93
2019-03-21T23:28:23.839Z,31.93
2019-03-21T23:30:54.659Z,30.03
2019-03-21T23:33:25.620Z,25.23
2019-03-21T23:35:56.456Z,27.57
2019-03-21T23:38:27.352Z,29.67
2019-03-21T23:40:58.096Z,26.37
2019-03-21T23:43:30.199Z,24.47
2019-03-21T23:46:00.911Z,28.83
2019-03-21T23:48:31.694Z,29.03
2019-03-21T23:51:02.512Z,26.57
2019-03-21T23:53:33.317Z,26.40
2019-03-21T23:56:05.490Z,28.67
2019-03-21T23:58:36.301Z,28.87
